EGPI/ILY METAR and TAF weather

Enter ICAO airport designator
Station Type Date Time Source
EGPI METAR 2021/08/01 17:20 UTC NOAA

EGPI 011720Z AUTO 33012KT 9999 FEW030/// 15/07 Q1015


Station Type Date Time Source
EGPI Decoded METAR 2021/08/01 17:20 UTC NOAA

Islay, United Kingdom (EGPI) 55-40-55N 006-15-24W
Aug 01, 2021 - 01:20 PM EDT / 2021.08.01 1720 UTC
Wind: from the NNW (330 degrees) at 14 MPH (12 KT):0
Visibility: greater than 7 mile(s):0
Sky conditions: mostly clear
Temperature: 59 F (15 C)
Dew Point: 44 F (7 C)
Relative Humidity: 58%
Pressure (altimeter): 29.97 in. Hg (1015 hPa)
ob: EGPI 011720Z AUTO 33012KT 9999 FEW030/// 15/07 Q1015
cycle: 17

Station Type Date Time Source
EGPI TAF UTC NOAA

Error!

Example: see airport list